sensor_id;sensor_type;location;lat;lon;timestamp;temperature;humidity
3086;DHT22;52812;48.960;9.108;2024-01-11T00:01:13;-5.80;99.90
3086;DHT22;52812;48.960;9.108;2024-01-11T00:03:39;-5.80;99.90
3086;DHT22;52812;48.960;9.108;2024-01-11T00:06:05;-5.80;99.90
3086;DHT22;52812;48.960;9.108;2024-01-11T00:08:30;-5.80;99.90
3086;DHT22;52812;48.960;9.108;2024-01-11T00:10:56;-5.80;99.90
3086;DHT22;52812;48.960;9.108;2024-01-11T00:13:22;-5.90;99.90
3086;DHT22;52812;48.960;9.108;2024-01-11T00:15:47;-5.80;99.90
3086;DHT22;52812;48.960;9.108;2024-01-11T00:18:13;-5.80;99.90
3086;DHT22;52812;48.960;9.108;2024-01-11T00:20:38;-5.80;99.90
3086;DHT22;52812;48.960;9.108;2024-01-11T00:23:04;-5.90;99.90
3086;DHT22;52812;48.960;9.108;2024-01-11T00:25:30;-5.90;99.90
3086;DHT22;52812;48.960;9.108;2024-01-11T00:27:55;-5.90;99.90
3086;DHT22;52812;48.960;9.108;2024-01-11T00:30:21;-5.90;99.90
3086;DHT22;52812;48.960;9.108;2024-01-11T00:32:48;-5.90;99.90
3086;DHT22;52812;48.960;9.108;2024-01-11T00:35:14;-5.90;99.90
3086;DHT22;52812;48.960;9.108;2024-01-11T00:37:39;-5.90;99.90
3086;DHT22;52812;48.960;9.108;2024-01-11T00:40:06;-6.00;99.90
3086;DHT22;52812;48.960;9.108;2024-01-11T00:42:31;-6.00;99.90
3086;DHT22;52812;48.960;9.108;2024-01-11T00:44:57;-6.00;99.90
3086;DHT22;52812;48.960;9.108;2024-01-11T00:47:22;-6.10;99.90
3086;DHT22;52812;48.960;9.108;2024-01-11T00:49:48;-6.10;99.90
3086;DHT22;52812;48.960;9.108;2024-01-11T00:52:14;-6.10;99.90
3086;DHT22;52812;48.960;9.108;2024-01-11T00:54:39;-6.10;99.90
3086;DHT22;52812;48.960;9.108;2024-01-11T00:57:06;-6.20;99.90
3086;DHT22;52812;48.960;9.108;2024-01-11T00:59:31;-6.20;99.90
3086;DHT22;52812;48.960;9.108;2024-01-11T01:01:57;-6.20;99.90
3086;DHT22;52812;48.960;9.108;2024-01-11T01:04:22;-6.20;99.90
3086;DHT22;52812;48.960;9.108;2024-01-11T01:06:48;-6.20;99.90
3086;DHT22;52812;48.960;9.108;2024-01-11T01:09:14;-6.20;99.90
3086;DHT22;52812;48.960;9.108;2024-01-11T01:11:40;-6.20;99.90
3086;DHT22;52812;48.960;9.108;2024-01-11T01:14:05;-6.20;99.90
3086;DHT22;52812;48.960;9.108;2024-01-11T01:16:31;-6.20;99.90
3086;DHT22;52812;48.960;9.108;2024-01-11T01:18:56;-6.30;99.90
3086;DHT22;52812;48.960;9.108;2024-01-11T01:21:22;-6.30;99.90
3086;DHT22;52812;48.960;9.108;2024-01-11T01:23:48;-6.40;99.90
3086;DHT22;52812;48.960;9.108;2024-01-11T01:26:14;-6.40;99.90
3086;DHT22;52812;48.960;9.108;2024-01-11T01:28:39;-6.40;99.90
3086;DHT22;52812;48.960;9.108;2024-01-11T01:31:05;-6.40;99.90
3086;DHT22;52812;48.960;9.108;2024-01-11T01:33:31;-6.40;99.90
3086;DHT22;52812;48.960;9.108;2024-01-11T01:35:57;-6.40;99.90
3086;DHT22;52812;48.960;9.108;2024-01-11T01:38:23;-6.30;99.90
3086;DHT22;52812;48.960;9.108;2024-01-11T01:40:49;-6.30;99.90
3086;DHT22;52812;48.960;9.108;2024-01-11T01:43:14;-6.20;99.90
3086;DHT22;52812;48.960;9.108;2024-01-11T01:45:40;-6.20;99.90
3086;DHT22;52812;48.960;9.108;2024-01-11T01:48:07;-6.30;99.90
3086;DHT22;52812;48.960;9.108;2024-01-11T01:50:32;-6.40;99.90
3086;DHT22;52812;48.960;9.108;2024-01-11T01:52:58;-6.40;99.90
3086;DHT22;52812;48.960;9.108;2024-01-11T01:55:25;-6.40;99.90
3086;DHT22;52812;48.960;9.108;2024-01-11T01:57:52;-6.50;99.90
3086;DHT22;52812;48.960;9.108;2024-01-11T02:00:18;-6.40;99.90
3086;DHT22;52812;48.960;9.108;2024-01-11T02:02:44;-6.50;99.90
3086;DHT22;52812;48.960;9.108;2024-01-11T02:05:12;-6.40;99.90
3086;DHT22;52812;48.960;9.108;2024-01-11T02:07:39;-6.40;99.90
3086;DHT22;52812;48.960;9.108;2024-01-11T02:10:08;-6.50;99.90
3086;DHT22;52812;48.960;9.108;2024-01-11T02:12:35;-6.50;99.90
3086;DHT22;52812;48.960;9.108;2024-01-11T02:15:03;-6.50;99.90
3086;DHT22;52812;48.960;9.108;2024-01-11T02:17:29;-6.60;99.90
3086;DHT22;52812;48.960;9.108;2024-01-11T02:19:55;-6.60;99.90
3086;DHT22;52812;48.960;9.108;2024-01-11T02:22:23;-6.60;99.90
3086;DHT22;52812;48.960;9.108;2024-01-11T02:24:50;-6.60;99.90
3086;DHT22;52812;48.960;9.108;2024-01-11T02:27:16;-6.50;99.90
3086;DHT22;52812;48.960;9.108;2024-01-11T02:29:41;-6.50;99.90
3086;DHT22;52812;48.960;9.108;2024-01-11T02:32:07;-6.50;99.90
3086;DHT22;52812;48.960;9.108;2024-01-11T02:34:34;-6.50;99.90
3086;DHT22;52812;48.960;9.108;2024-01-11T02:37:00;-6.50;99.90
3086;DHT22;52812;48.960;9.108;2024-01-11T02:39:26;-6.40;99.90
3086;DHT22;52812;48.960;9.108;2024-01-11T02:41:56;-6.60;99.90
3086;DHT22;52812;48.960;9.108;2024-01-11T02:44:23;-6.60;99.90
3086;DHT22;52812;48.960;9.108;2024-01-11T02:46:51;-6.60;99.90
3086;DHT22;52812;48.960;9.108;2024-01-11T02:49:16;-6.70;99.90
3086;DHT22;52812;48.960;9.108;2024-01-11T02:51:42;-6.80;99.90
3086;DHT22;52812;48.960;9.108;2024-01-11T02:54:08;-6.80;99.90
3086;DHT22;52812;48.960;9.108;2024-01-11T02:56:33;-6.80;99.90
3086;DHT22;52812;48.960;9.108;2024-01-11T02:58:59;-6.80;99.90
3086;DHT22;52812;48.960;9.108;2024-01-11T03:01:24;-6.90;99.90
3086;DHT22;52812;48.960;9.108;2024-01-11T03:03:50;-6.80;99.90
3086;DHT22;52812;48.960;9.108;2024-01-11T03:06:16;-6.80;99.90
3086;DHT22;52812;48.960;9.108;2024-01-11T03:08:47;-6.80;99.90
3086;DHT22;52812;48.960;9.108;2024-01-11T03:11:12;-6.80;99.90
3086;DHT22;52812;48.960;9.108;2024-01-11T03:13:38;-6.90;99.90
3086;DHT22;52812;48.960;9.108;2024-01-11T03:16:05;-6.90;99.90
3086;DHT22;52812;48.960;9.108;2024-01-11T03:18:30;-6.90;99.90
3086;DHT22;52812;48.960;9.108;2024-01-11T03:20:57;-6.90;99.90
3086;DHT22;52812;48.960;9.108;2024-01-11T03:23:22;-6.90;99.90
3086;DHT22;52812;48.960;9.108;2024-01-11T03:25:48;-7.00;99.90
3086;DHT22;52812;48.960;9.108;2024-01-11T03:28:13;-7.00;99.90
3086;DHT22;52812;48.960;9.108;2024-01-11T03:30:39;-7.00;99.90
3086;DHT22;52812;48.960;9.108;2024-01-11T03:33:06;-6.90;99.90
3086;DHT22;52812;48.960;9.108;2024-01-11T03:35:32;-7.00;99.90
3086;DHT22;52812;48.960;9.108;2024-01-11T03:37:57;-7.10;99.90
3086;DHT22;52812;48.960;9.108;2024-01-11T03:40:23;-6.90;99.90
3086;DHT22;52812;48.960;9.108;2024-01-11T03:42:48;-6.90;99.90
3086;DHT22;52812;48.960;9.108;2024-01-11T03:45:17;-6.90;99.90
3086;DHT22;52812;48.960;9.108;2024-01-11T03:47:44;-7.00;99.90
3086;DHT22;52812;48.960;9.108;2024-01-11T03:50:10;-7.10;99.90
3086;DHT22;52812;48.960;9.108;2024-01-11T03:52:36;-7.10;99.90
3086;DHT22;52812;48.960;9.108;2024-01-11T03:55:02;-7.10;99.90
3086;DHT22;52812;48.960;9.108;2024-01-11T03:57:27;-7.20;99.90
3086;DHT22;52812;48.960;9.108;2024-01-11T03:59:53;-7.20;99.90
3086;DHT22;52812;48.960;9.108;2024-01-11T04:02:19;-7.20;99.90
3086;DHT22;52812;48.960;9.108;2024-01-11T04:04:44;-7.20;99.90
3086;DHT22;52812;48.960;9.108;2024-01-11T04:07:10;-7.20;99.90
3086;DHT22;52812;48.960;9.108;2024-01-11T04:09:37;-7.20;99.90
3086;DHT22;52812;48.960;9.108;2024-01-11T04:12:04;-7.10;99.90
3086;DHT22;52812;48.960;9.108;2024-01-11T04:14:30;-7.00;99.90
3086;DHT22;52812;48.960;9.108;2024-01-11T04:16:56;-7.10;99.90
3086;DHT22;52812;48.960;9.108;2024-01-11T04:19:22;-7.20;99.90
3086;DHT22;52812;48.960;9.108;2024-01-11T04:21:48;-7.30;99.90
3086;DHT22;52812;48.960;9.108;2024-01-11T04:24:14;-7.30;99.90
3086;DHT22;52812;48.960;9.108;2024-01-11T04:26:40;-7.40;99.90
3086;DHT22;52812;48.960;9.108;2024-01-11T04:29:05;-7.40;99.90
3086;DHT22;52812;48.960;9.108;2024-01-11T04:31:31;-7.40;99.90
3086;DHT22;52812;48.960;9.108;2024-01-11T04:33:57;-7.40;99.90
3086;DHT22;52812;48.960;9.108;2024-01-11T04:36:22;-7.40;99.90
3086;DHT22;52812;48.960;9.108;2024-01-11T04:38:48;-7.30;99.90
3086;DHT22;52812;48.960;9.108;2024-01-11T04:41:14;-7.20;99.90
3086;DHT22;52812;48.960;9.108;2024-01-11T04:43:42;-7.20;99.90
3086;DHT22;52812;48.960;9.108;2024-01-11T04:46:17;-7.30;99.90
3086;DHT22;52812;48.960;9.108;2024-01-11T04:48:44;-7.30;99.90
3086;DHT22;52812;48.960;9.108;2024-01-11T04:51:11;-7.40;99.90
3086;DHT22;52812;48.960;9.108;2024-01-11T04:53:38;-7.40;99.90
3086;DHT22;52812;48.960;9.108;2024-01-11T04:56:05;-7.50;99.90
3086;DHT22;52812;48.960;9.108;2024-01-11T04:58:31;-7.40;99.90
3086;DHT22;52812;48.960;9.108;2024-01-11T05:00:57;-7.50;99.90
3086;DHT22;52812;48.960;9.108;2024-01-11T05:03:23;-7.50;99.90
3086;DHT22;52812;48.960;9.108;2024-01-11T05:05:48;-7.50;99.90
3086;DHT22;52812;48.960;9.108;2024-01-11T05:08:14;-7.40;99.90
3086;DHT22;52812;48.960;9.108;2024-01-11T05:10:39;-7.40;99.90
3086;DHT22;52812;48.960;9.108;2024-01-11T05:13:05;-7.30;99.90
3086;DHT22;52812;48.960;9.108;2024-01-11T05:15:31;-7.30;99.90
3086;DHT22;52812;48.960;9.108;2024-01-11T05:17:59;-7.40;99.90
3086;DHT22;52812;48.960;9.108;2024-01-11T05:20:25;-7.40;99.90
3086;DHT22;52812;48.960;9.108;2024-01-11T05:22:50;-7.40;99.90
3086;DHT22;52812;48.960;9.108;2024-01-11T05:25:16;-7.50;99.90
3086;DHT22;52812;48.960;9.108;2024-01-11T05:27:42;-7.50;99.90
3086;DHT22;52812;48.960;9.108;2024-01-11T05:30:08;-7.50;99.90
3086;DHT22;52812;48.960;9.108;2024-01-11T05:32:33;-7.50;99.90
3086;DHT22;52812;48.960;9.108;2024-01-11T05:34:59;-7.50;99.90
3086;DHT22;52812;48.960;9.108;2024-01-11T05:37:25;-7.50;99.90
3086;DHT22;52812;48.960;9.108;2024-01-11T05:39:51;-7.40;99.90
3086;DHT22;52812;48.960;9.108;2024-01-11T05:42:17;-7.60;99.90
3086;DHT22;52812;48.960;9.108;2024-01-11T05:44:43;-7.50;99.90
3086;DHT22;52812;48.960;9.108;2024-01-11T05:47:09;-7.40;99.90
3086;DHT22;52812;48.960;9.108;2024-01-11T05:49:35;-7.40;99.90
3086;DHT22;52812;48.960;9.108;2024-01-11T05:52:00;-7.30;99.90
3086;DHT22;52812;48.960;9.108;2024-01-11T05:54:26;-7.60;99.90
3086;DHT22;52812;48.960;9.108;2024-01-11T05:56:53;-7.60;99.90
3086;DHT22;52812;48.960;9.108;2024-01-11T05:59:21;-7.60;99.90
3086;DHT22;52812;48.960;9.108;2024-01-11T06:01:47;-7.60;99.90
3086;DHT22;52812;48.960;9.108;2024-01-11T06:04:13;-7.50;99.90
3086;DHT22;52812;48.960;9.108;2024-01-11T06:06:39;-7.60;99.90
3086;DHT22;52812;48.960;9.108;2024-01-11T06:09:05;-7.60;99.90
3086;DHT22;52812;48.960;9.108;2024-01-11T06:11:31;-7.50;99.90
3086;DHT22;52812;48.960;9.108;2024-01-11T06:13:56;-7.60;99.90
3086;DHT22;52812;48.960;9.108;2024-01-11T06:16:23;-7.60;99.90
3086;DHT22;52812;48.960;9.108;2024-01-11T06:18:48;-7.60;99.90
3086;DHT22;52812;48.960;9.108;2024-01-11T06:21:14;-7.70;99.90
3086;DHT22;52812;48.960;9.108;2024-01-11T06:23:45;-7.60;99.90
3086;DHT22;52812;48.960;9.108;2024-01-11T06:26:11;-7.60;99.90
3086;DHT22;52812;48.960;9.108;2024-01-11T06:28:36;-7.60;99.90
3086;DHT22;52812;48.960;9.108;2024-01-11T06:31:02;-7.70;99.90
3086;DHT22;52812;48.960;9.108;2024-01-11T06:33:28;-7.70;99.90
3086;DHT22;52812;48.960;9.108;2024-01-11T06:35:54;-7.80;99.90
3086;DHT22;52812;48.960;9.108;2024-01-11T06:38:21;-7.80;99.90
3086;DHT22;52812;48.960;9.108;2024-01-11T06:40:47;-7.80;99.90
3086;DHT22;52812;48.960;9.108;2024-01-11T06:43:13;-7.80;99.90
3086;DHT22;52812;48.960;9.108;2024-01-11T06:45:38;-7.80;99.90
3086;DHT22;52812;48.960;9.108;2024-01-11T06:48:05;-7.80;99.90
3086;DHT22;52812;48.960;9.108;2024-01-11T06:50:30;-7.80;99.90
3086;DHT22;52812;48.960;9.108;2024-01-11T06:52:56;-7.80;99.90
3086;DHT22;52812;48.960;9.108;2024-01-11T06:55:21;-7.80;99.90
3086;DHT22;52812;48.960;9.108;2024-01-11T06:57:47;-7.80;99.90
3086;DHT22;52812;48.960;9.108;2024-01-11T07:00:13;-7.80;99.90
3086;DHT22;52812;48.960;9.108;2024-01-11T07:02:39;-7.80;99.90
3086;DHT22;52812;48.960;9.108;2024-01-11T07:05:07;-7.70;99.90
3086;DHT22;52812;48.960;9.108;2024-01-11T07:07:33;-7.70;99.90
3086;DHT22;52812;48.960;9.108;2024-01-11T07:09:59;-7.70;99.90
3086;DHT22;52812;48.960;9.108;2024-01-11T07:12:25;-7.80;99.90
3086;DHT22;52812;48.960;9.108;2024-01-11T07:14:53;-7.80;99.90
3086;DHT22;52812;48.960;9.108;2024-01-11T07:17:19;-7.80;99.90
3086;DHT22;52812;48.960;9.108;2024-01-11T07:19:45;-7.80;99.90
3086;DHT22;52812;48.960;9.108;2024-01-11T07:22:10;-7.80;99.90
3086;DHT22;52812;48.960;9.108;2024-01-11T07:24:37;-7.70;99.90
3086;DHT22;52812;48.960;9.108;2024-01-11T07:27:06;-7.80;99.90
3086;DHT22;52812;48.960;9.108;2024-01-11T07:29:33;-7.70;99.90
3086;DHT22;52812;48.960;9.108;2024-01-11T07:31:59;-7.70;99.90
3086;DHT22;52812;48.960;9.108;2024-01-11T07:34:24;-7.80;99.90
3086;DHT22;52812;48.960;9.108;2024-01-11T07:36:51;-7.70;99.90
3086;DHT22;52812;48.960;9.108;2024-01-11T07:39:18;-7.70;99.90
3086;DHT22;52812;48.960;9.108;2024-01-11T07:41:43;-7.60;99.90
3086;DHT22;52812;48.960;9.108;2024-01-11T07:44:09;-7.50;99.90
3086;DHT22;52812;48.960;9.108;2024-01-11T07:46:34;-7.50;99.90
3086;DHT22;52812;48.960;9.108;2024-01-11T07:49:00;-7.50;99.90
3086;DHT22;52812;48.960;9.108;2024-01-11T07:51:26;-7.40;99.90
3086;DHT22;52812;48.960;9.108;2024-01-11T07:53:52;-7.30;99.90
3086;DHT22;52812;48.960;9.108;2024-01-11T07:56:18;-7.40;99.90
3086;DHT22;52812;48.960;9.108;2024-01-11T07:58:44;-7.20;99.90
3086;DHT22;52812;48.960;9.108;2024-01-11T08:01:09;-7.20;99.90
3086;DHT22;52812;48.960;9.108;2024-01-11T08:03:35;-7.20;99.90
3086;DHT22;52812;48.960;9.108;2024-01-11T08:06:01;-7.10;99.90
3086;DHT22;52812;48.960;9.108;2024-01-11T08:08:27;-7.10;99.90
3086;DHT22;52812;48.960;9.108;2024-01-11T08:10:53;-6.90;99.90
3086;DHT22;52812;48.960;9.108;2024-01-11T08:13:19;-6.90;99.90
3086;DHT22;52812;48.960;9.108;2024-01-11T08:15:46;-6.80;99.90
3086;DHT22;52812;48.960;9.108;2024-01-11T08:18:12;-6.70;99.90
3086;DHT22;52812;48.960;9.108;2024-01-11T08:20:39;-6.60;99.90
3086;DHT22;52812;48.960;9.108;2024-01-11T08:23:04;-6.50;99.90
3086;DHT22;52812;48.960;9.108;2024-01-11T08:25:30;-6.40;99.90
3086;DHT22;52812;48.960;9.108;2024-01-11T08:27:56;-6.20;99.90
3086;DHT22;52812;48.960;9.108;2024-01-11T08:30:21;-6.10;99.90
3086;DHT22;52812;48.960;9.108;2024-01-11T08:32:47;-6.00;99.90
3086;DHT22;52812;48.960;9.108;2024-01-11T08:35:14;-5.80;99.90
3086;DHT22;52812;48.960;9.108;2024-01-11T08:37:40;-5.70;99.90
3086;DHT22;52812;48.960;9.108;2024-01-11T08:40:07;-5.60;99.90
3086;DHT22;52812;48.960;9.108;2024-01-11T08:42:32;-5.50;99.90
3086;DHT22;52812;48.960;9.108;2024-01-11T08:44:58;-5.50;99.90
3086;DHT22;52812;48.960;9.108;2024-01-11T08:47:25;-5.40;99.90
3086;DHT22;52812;48.960;9.108;2024-01-11T08:49:50;-5.20;99.90
3086;DHT22;52812;48.960;9.108;2024-01-11T08:52:16;-5.20;99.90
3086;DHT22;52812;48.960;9.108;2024-01-11T08:54:42;-5.00;99.90
3086;DHT22;52812;48.960;9.108;2024-01-11T08:57:07;-4.90;99.90
3086;DHT22;52812;48.960;9.108;2024-01-11T08:59:33;-4.80;99.90
3086;DHT22;52812;48.960;9.108;2024-01-11T09:01:59;-4.70;99.90
3086;DHT22;52812;48.960;9.108;2024-01-11T09:04:24;-4.60;99.90
3086;DHT22;52812;48.960;9.108;2024-01-11T09:06:50;-4.50;99.90
3086;DHT22;52812;48.960;9.108;2024-01-11T09:09:15;-4.50;99.90
3086;DHT22;52812;48.960;9.108;2024-01-11T09:11:42;-4.40;99.90
3086;DHT22;52812;48.960;9.108;2024-01-11T09:14:08;-4.30;99.90
3086;DHT22;52812;48.960;9.108;2024-01-11T09:16:36;-4.10;99.90
3086;DHT22;52812;48.960;9.108;2024-01-11T09:19:02;-4.00;99.90
3086;DHT22;52812;48.960;9.108;2024-01-11T09:21:28;-4.00;99.90
3086;DHT22;52812;48.960;9.108;2024-01-11T09:23:53;-3.90;99.90
3086;DHT22;52812;48.960;9.108;2024-01-11T09:26:19;-3.80;99.90
3086;DHT22;52812;48.960;9.108;2024-01-11T09:28:45;-3.70;99.90
3086;DHT22;52812;48.960;9.108;2024-01-11T09:31:11;-3.60;99.90
3086;DHT22;52812;48.960;9.108;2024-01-11T09:33:37;-3.50;99.90
3086;DHT22;52812;48.960;9.108;2024-01-11T09:36:03;-3.50;99.90
3086;DHT22;52812;48.960;9.108;2024-01-11T09:38:32;-3.40;99.90
3086;DHT22;52812;48.960;9.108;2024-01-11T09:41:09;-3.30;99.90
3086;DHT22;52812;48.960;9.108;2024-01-11T09:43:36;-3.20;99.90
3086;DHT22;52812;48.960;9.108;2024-01-11T09:46:04;-3.20;99.90
3086;DHT22;52812;48.960;9.108;2024-01-11T09:48:33;-3.20;99.90
3086;DHT22;52812;48.960;9.108;2024-01-11T09:51:04;-3.10;99.90
3086;DHT22;52812;48.960;9.108;2024-01-11T09:53:33;-3.10;99.90
3086;DHT22;52812;48.960;9.108;2024-01-11T09:55:59;-3.10;99.90
3086;DHT22;52812;48.960;9.108;2024-01-11T09:58:26;-3.10;99.90
3086;DHT22;52812;48.960;9.108;2024-01-11T10:00:56;-3.10;99.90
3086;DHT22;52812;48.960;9.108;2024-01-11T10:03:25;-2.90;99.90
3086;DHT22;52812;48.960;9.108;2024-01-11T10:05:55;-2.90;99.90
3086;DHT22;52812;48.960;9.108;2024-01-11T10:08:22;-2.90;99.90
3086;DHT22;52812;48.960;9.108;2024-01-11T10:10:48;-2.80;99.90
3086;DHT22;52812;48.960;9.108;2024-01-11T10:13:15;-2.80;99.90
3086;DHT22;52812;48.960;9.108;2024-01-11T10:15:42;-2.80;99.90
3086;DHT22;52812;48.960;9.108;2024-01-11T10:18:08;-2.80;99.90
3086;DHT22;52812;48.960;9.108;2024-01-11T10:20:34;-2.70;99.90
3086;DHT22;52812;48.960;9.108;2024-01-11T10:22:59;-2.80;99.90
3086;DHT22;52812;48.960;9.108;2024-01-11T10:25:26;-2.70;99.90
3086;DHT22;52812;48.960;9.108;2024-01-11T10:27:52;-2.70;99.90
3086;DHT22;52812;48.960;9.108;2024-01-11T10:30:21;-2.60;99.90
3086;DHT22;52812;48.960;9.108;2024-01-11T10:32:49;-2.50;99.90
3086;DHT22;52812;48.960;9.108;2024-01-11T10:35:15;-2.40;99.90
3086;DHT22;52812;48.960;9.108;2024-01-11T10:37:44;-2.40;99.90
3086;DHT22;52812;48.960;9.108;2024-01-11T10:40:09;-2.30;99.90
3086;DHT22;52812;48.960;9.108;2024-01-11T10:42:51;-2.20;99.90
3086;DHT22;52812;48.960;9.108;2024-01-11T10:45:20;-2.10;99.90
3086;DHT22;52812;48.960;9.108;2024-01-11T10:48:02;-2.00;99.90
3086;DHT22;52812;48.960;9.108;2024-01-11T10:50:35;-2.10;99.90
3086;DHT22;52812;48.960;9.108;2024-01-11T10:55:38;-1.90;99.90
3086;DHT22;52812;48.960;9.108;2024-01-11T10:58:06;-1.80;99.90
3086;DHT22;52812;48.960;9.108;2024-01-11T11:00:34;-1.60;99.90
3086;DHT22;52812;48.960;9.108;2024-01-11T11:03:00;-1.40;99.90
3086;DHT22;52812;48.960;9.108;2024-01-11T11:05:29;-1.30;99.90
3086;DHT22;52812;48.960;9.108;2024-01-11T11:07:58;-1.30;99.90
3086;DHT22;52812;48.960;9.108;2024-01-11T11:10:27;-1.30;99.90
3086;DHT22;52812;48.960;9.108;2024-01-11T11:12:54;-1.20;99.90
3086;DHT22;52812;48.960;9.108;2024-01-11T11:15:24;-1.10;99.90
3086;DHT22;52812;48.960;9.108;2024-01-11T11:17:50;-1.10;99.90
3086;DHT22;52812;48.960;9.108;2024-01-11T11:20:16;-1.10;99.90
3086;DHT22;52812;48.960;9.108;2024-01-11T11:22:42;-1.00;99.90
3086;DHT22;52812;48.960;9.108;2024-01-11T11:25:23;-0.90;99.90
3086;DHT22;52812;48.960;9.108;2024-01-11T11:27:49;-0.90;99.90
3086;DHT22;52812;48.960;9.108;2024-01-11T11:30:15;-1.00;99.90
3086;DHT22;52812;48.960;9.108;2024-01-11T11:32:44;-1.00;99.90
3086;DHT22;52812;48.960;9.108;2024-01-11T11:35:10;-1.00;99.90
3086;DHT22;52812;48.960;9.108;2024-01-11T11:37:39;-1.10;99.90
3086;DHT22;52812;48.960;9.108;2024-01-11T11:40:09;-1.10;99.90
3086;DHT22;52812;48.960;9.108;2024-01-11T11:42:36;-1.10;99.90
3086;DHT22;52812;48.960;9.108;2024-01-11T11:45:02;-1.10;99.90
3086;DHT22;52812;48.960;9.108;2024-01-11T11:47:36;-0.90;99.90
3086;DHT22;52812;48.960;9.108;2024-01-11T11:50:08;-0.90;99.90
3086;DHT22;52812;48.960;9.108;2024-01-11T11:52:36;-0.80;99.90
3086;DHT22;52812;48.960;9.108;2024-01-11T11:55:03;-0.90;99.90
3086;DHT22;52812;48.960;9.108;2024-01-11T11:57:30;-0.90;99.90
3086;DHT22;52812;48.960;9.108;2024-01-11T11:59:57;-1.00;99.90
3086;DHT22;52812;48.960;9.108;2024-01-11T12:02:28;-1.00;99.90
3086;DHT22;52812;48.960;9.108;2024-01-11T12:04:54;-1.00;99.90
3086;DHT22;52812;48.960;9.108;2024-01-11T12:07:24;-0.90;99.90
3086;DHT22;52812;48.960;9.108;2024-01-11T12:09:51;-0.90;99.90
3086;DHT22;52812;48.960;9.108;2024-01-11T12:12:17;-0.80;99.90
3086;DHT22;52812;48.960;9.108;2024-01-11T12:14:46;-0.90;99.90
3086;DHT22;52812;48.960;9.108;2024-01-11T12:17:12;-0.90;99.90
3086;DHT22;52812;48.960;9.108;2024-01-11T12:19:38;-0.80;99.90
3086;DHT22;52812;48.960;9.108;2024-01-11T12:22:04;-0.80;99.90
3086;DHT22;52812;48.960;9.108;2024-01-11T12:24:30;-0.80;99.90
3086;DHT22;52812;48.960;9.108;2024-01-11T12:26:57;-0.90;99.90
3086;DHT22;52812;48.960;9.108;2024-01-11T12:29:25;-0.90;99.90
3086;DHT22;52812;48.960;9.108;2024-01-11T12:31:53;-0.90;99.90
3086;DHT22;52812;48.960;9.108;2024-01-11T12:34:19;-0.90;99.90
3086;DHT22;52812;48.960;9.108;2024-01-11T12:36:45;-0.80;99.90
3086;DHT22;52812;48.960;9.108;2024-01-11T12:39:11;-0.70;99.90
3086;DHT22;52812;48.960;9.108;2024-01-11T12:41:39;-0.70;99.90
3086;DHT22;52812;48.960;9.108;2024-01-11T12:44:05;-0.70;99.90
3086;DHT22;52812;48.960;9.108;2024-01-11T12:46:31;-0.70;99.90
3086;DHT22;52812;48.960;9.108;2024-01-11T12:48:57;-0.70;99.90
3086;DHT22;52812;48.960;9.108;2024-01-11T12:51:22;-0.70;99.90
3086;DHT22;52812;48.960;9.108;2024-01-11T12:53:51;-0.80;99.90
3086;DHT22;52812;48.960;9.108;2024-01-11T12:56:18;-0.80;99.90
3086;DHT22;52812;48.960;9.108;2024-01-11T12:58:44;-0.90;99.90
3086;DHT22;52812;48.960;9.108;2024-01-11T13:01:12;-0.70;99.90
3086;DHT22;52812;48.960;9.108;2024-01-11T13:03:43;-0.70;99.90
3086;DHT22;52812;48.960;9.108;2024-01-11T13:06:09;-0.70;99.90
3086;DHT22;52812;48.960;9.108;2024-01-11T13:08:37;-0.70;99.90
3086;DHT22;52812;48.960;9.108;2024-01-11T13:11:05;-0.70;99.90
3086;DHT22;52812;48.960;9.108;2024-01-11T13:13:35;-0.70;99.90
3086;DHT22;52812;48.960;9.108;2024-01-11T13:16:02;-0.70;99.90
3086;DHT22;52812;48.960;9.108;2024-01-11T13:18:46;-0.70;99.90
3086;DHT22;52812;48.960;9.108;2024-01-11T13:21:12;-0.60;99.90
3086;DHT22;52812;48.960;9.108;2024-01-11T13:23:38;-0.50;99.90
3086;DHT22;52812;48.960;9.108;2024-01-11T13:26:06;-0.50;99.90
3086;DHT22;52812;48.960;9.108;2024-01-11T13:28:32;-0.60;99.90
3086;DHT22;52812;48.960;9.108;2024-01-11T13:30:58;-0.60;99.90
3086;DHT22;52812;48.960;9.108;2024-01-11T13:33:24;-0.60;99.90
3086;DHT22;52812;48.960;9.108;2024-01-11T13:35:50;-0.50;99.90
3086;DHT22;52812;48.960;9.108;2024-01-11T13:38:16;-0.50;99.90
3086;DHT22;52812;48.960;9.108;2024-01-11T13:40:42;-0.50;99.90
3086;DHT22;52812;48.960;9.108;2024-01-11T13:43:09;-0.60;99.90
3086;DHT22;52812;48.960;9.108;2024-01-11T13:45:35;-0.60;99.90
3086;DHT22;52812;48.960;9.108;2024-01-11T13:48:05;-0.60;99.90
3086;DHT22;52812;48.960;9.108;2024-01-11T13:50:31;-0.60;99.90
3086;DHT22;52812;48.960;9.108;2024-01-11T13:52:57;-0.60;99.90
3086;DHT22;52812;48.960;9.108;2024-01-11T13:55:23;-0.60;99.90
3086;DHT22;52812;48.960;9.108;2024-01-11T13:57:52;-0.60;99.90
3086;DHT22;52812;48.960;9.108;2024-01-11T14:00:19;-0.60;99.90
3086;DHT22;52812;48.960;9.108;2024-01-11T14:02:46;-0.50;99.90
3086;DHT22;52812;48.960;9.108;2024-01-11T14:05:12;-0.50;99.90
3086;DHT22;52812;48.960;9.108;2024-01-11T14:07:40;-0.50;99.90
3086;DHT22;52812;48.960;9.108;2024-01-11T14:10:07;-0.50;99.90
3086;DHT22;52812;48.960;9.108;2024-01-11T14:12:37;-0.50;99.90
3086;DHT22;52812;48.960;9.108;2024-01-11T14:15:03;-0.40;99.90
3086;DHT22;52812;48.960;9.108;2024-01-11T14:17:29;-0.50;99.90
3086;DHT22;52812;48.960;9.108;2024-01-11T14:19:55;-0.40;99.90
3086;DHT22;52812;48.960;9.108;2024-01-11T14:22:21;-0.40;99.90
3086;DHT22;52812;48.960;9.108;2024-01-11T14:24:46;-0.40;99.90
3086;DHT22;52812;48.960;9.108;2024-01-11T14:27:12;-0.50;99.90
3086;DHT22;52812;48.960;9.108;2024-01-11T14:29:39;-0.50;99.90
3086;DHT22;52812;48.960;9.108;2024-01-11T14:32:05;-0.60;99.90
3086;DHT22;52812;48.960;9.108;2024-01-11T14:34:31;-0.50;99.90
3086;DHT22;52812;48.960;9.108;2024-01-11T14:36:56;-0.60;99.90
3086;DHT22;52812;48.960;9.108;2024-01-11T14:39:22;-0.60;99.90
3086;DHT22;52812;48.960;9.108;2024-01-11T14:41:49;-0.60;99.90
3086;DHT22;52812;48.960;9.108;2024-01-11T14:44:14;-0.60;99.90
3086;DHT22;52812;48.960;9.108;2024-01-11T14:46:40;-0.60;99.90
3086;DHT22;52812;48.960;9.108;2024-01-11T14:49:07;-0.70;99.90
3086;DHT22;52812;48.960;9.108;2024-01-11T14:51:33;-0.60;99.90
3086;DHT22;52812;48.960;9.108;2024-01-11T14:53:59;-0.60;99.90
3086;DHT22;52812;48.960;9.108;2024-01-11T14:56:25;-0.60;99.90
3086;DHT22;52812;48.960;9.108;2024-01-11T14:58:51;-0.60;99.90
3086;DHT22;52812;48.960;9.108;2024-01-11T15:01:17;-0.60;99.90
3086;DHT22;52812;48.960;9.108;2024-01-11T15:03:43;-0.60;99.90
3086;DHT22;52812;48.960;9.108;2024-01-11T15:06:08;-0.70;99.90
3086;DHT22;52812;48.960;9.108;2024-01-11T15:08:35;-0.70;99.90
3086;DHT22;52812;48.960;9.108;2024-01-11T15:11:00;-0.80;99.90
3086;DHT22;52812;48.960;9.108;2024-01-11T15:13:26;-0.90;99.90
3086;DHT22;52812;48.960;9.108;2024-01-11T15:15:51;-0.90;99.90
3086;DHT22;52812;48.960;9.108;2024-01-11T15:18:17;-0.90;99.90
3086;DHT22;52812;48.960;9.108;2024-01-11T15:20:43;-0.90;99.90
3086;DHT22;52812;48.960;9.108;2024-01-11T15:23:08;-1.10;99.90
3086;DHT22;52812;48.960;9.108;2024-01-11T15:25:34;-1.10;99.90
3086;DHT22;52812;48.960;9.108;2024-01-11T15:27:59;-1.20;99.90
3086;DHT22;52812;48.960;9.108;2024-01-11T15:30:25;-1.30;99.90
3086;DHT22;52812;48.960;9.108;2024-01-11T15:32:51;-1.40;99.90
3086;DHT22;52812;48.960;9.108;2024-01-11T15:35:16;-1.50;99.90
3086;DHT22;52812;48.960;9.108;2024-01-11T15:37:45;-1.40;99.90
3086;DHT22;52812;48.960;9.108;2024-01-11T15:40:11;-1.40;99.90
3086;DHT22;52812;48.960;9.108;2024-01-11T15:42:37;-1.40;99.90